createdAt,value
2017-09-17T00:00:28.666Z,11.49
2017-09-17T00:01:28.663Z,11.46
2017-09-17T00:02:28.660Z,11.46
2017-09-17T00:03:28.653Z,11.46
2017-09-17T00:04:28.658Z,11.45
2017-09-17T00:05:28.647Z,11.48
2017-09-17T00:06:28.643Z,11.39
2017-09-17T00:07:28.641Z,11.48
2017-09-17T00:08:28.633Z,11.46
2017-09-17T00:09:28.630Z,11.39
2017-09-17T00:10:28.624Z,11.38
2017-09-17T00:11:28.621Z,11.31
2017-09-17T00:12:28.615Z,11.31
2017-09-17T00:13:28.612Z,11.36
2017-09-17T00:14:28.608Z,11.33
2017-09-17T00:15:28.606Z,11.27
2017-09-17T00:16:28.599Z,11.28
2017-09-17T00:17:28.595Z,11.28
2017-09-17T00:18:28.590Z,11.27
2017-09-17T00:19:28.586Z,11.28
2017-09-17T00:20:28.582Z,11.28
2017-09-17T00:21:28.578Z,11.27
2017-09-17T00:22:28.576Z,11.31
2017-09-17T00:23:28.570Z,11.20
2017-09-17T00:24:28.565Z,11.17
2017-09-17T00:25:28.560Z,11.21
2017-09-17T00:26:28.555Z,11.09
2017-09-17T00:27:28.550Z,11.13
2017-09-17T00:28:28.545Z,11.21
2017-09-17T00:29:28.542Z,11.19
2017-09-17T00:30:28.540Z,11.12
2017-09-17T00:31:28.533Z,11.06
2017-09-17T00:32:28.528Z,11.12
2017-09-17T00:33:28.524Z,11.03
2017-09-17T00:34:28.520Z,11.03
2017-09-17T00:35:28.514Z,11.13
2017-09-17T00:36:28.512Z,10.95
2017-09-17T00:37:28.506Z,11.03
2017-09-17T00:38:28.501Z,11.16
2017-09-17T00:39:28.498Z,10.99
2017-09-17T00:40:28.493Z,11.08
2017-09-17T00:41:28.489Z,11.09
2017-09-17T00:42:28.485Z,11.09
2017-09-17T00:43:28.478Z,11.03
2017-09-17T00:44:28.475Z,11.09
2017-09-17T00:45:28.471Z,11.13
2017-09-17T00:46:28.466Z,11.16
2017-09-17T00:47:28.461Z,11.03
2017-09-17T00:48:28.457Z,11.08
2017-09-17T00:49:28.452Z,11.03
2017-09-17T00:50:28.448Z,11.05
2017-09-17T00:51:28.443Z,11.06
2017-09-17T00:52:28.440Z,11.02
2017-09-17T00:53:28.433Z,10.99
2017-09-17T00:54:28.430Z,11.03
2017-09-17T00:55:28.425Z,11.02
2017-09-17T00:56:28.420Z,10.90
2017-09-17T00:57:28.416Z,10.94
2017-09-17T00:58:28.412Z,11.01
2017-09-17T00:59:28.406Z,11.06
2017-09-17T01:00:28.403Z,10.94
2017-09-17T01:01:28.398Z,10.95
2017-09-17T01:02:28.392Z,10.93
2017-09-17T01:03:28.388Z,10.95
2017-09-17T01:04:28.382Z,10.83
2017-09-17T01:05:28.380Z,10.93
2017-09-17T01:06:28.376Z,10.99
2017-09-17T01:07:28.370Z,10.87
2017-09-17T01:08:28.364Z,10.86
2017-09-17T01:09:28.361Z,10.87
2017-09-17T01:10:28.357Z,10.88
2017-09-17T01:11:28.352Z,10.84
2017-09-17T01:12:28.348Z,10.73
2017-09-17T01:13:28.342Z,10.69
2017-09-17T01:14:28.339Z,10.72
2017-09-17T01:15:28.333Z,10.58
2017-09-17T01:16:28.328Z,10.63
2017-09-17T01:17:28.324Z,10.66
2017-09-17T01:18:28.321Z,10.76
2017-09-17T01:19:28.315Z,10.69
2017-09-17T01:20:28.311Z,10.73
2017-09-17T01:21:28.306Z,10.68
2017-09-17T01:22:28.302Z,10.78
2017-09-17T01:23:28.297Z,10.70
2017-09-17T01:24:28.292Z,10.70
2017-09-17T01:25:28.290Z,10.72
2017-09-17T01:26:28.283Z,10.63
2017-09-17T01:27:28.278Z,10.63
2017-09-17T01:28:28.274Z,10.60
2017-09-17T01:29:28.268Z,10.66
2017-09-17T01:30:28.264Z,10.58
2017-09-17T01:31:28.259Z,10.65
2017-09-17T01:32:28.253Z,10.44
2017-09-17T01:33:28.249Z,10.55
2017-09-17T01:34:28.246Z,10.49
2017-09-17T01:35:28.240Z,10.35
2017-09-17T01:36:28.234Z,10.44
2017-09-17T01:37:28.230Z,10.43
2017-09-17T01:38:28.226Z,10.49
2017-09-17T01:39:28.221Z,10.52
2017-09-17T01:40:28.219Z,10.47
2017-09-17T01:41:28.219Z,10.43
2017-09-17T01:42:28.208Z,10.43
2017-09-17T01:43:28.202Z,10.46
2017-09-17T01:44:28.197Z,10.46
2017-09-17T01:45:28.193Z,10.43
2017-09-17T01:46:28.188Z,10.47
2017-09-17T01:47:28.182Z,10.47
2017-09-17T01:48:28.178Z,10.46
2017-09-17T01:49:28.173Z,10.55
2017-09-17T01:50:28.169Z,10.43
2017-09-17T01:51:28.164Z,10.46
2017-09-17T01:52:28.158Z,10.44
2017-09-17T01:53:28.154Z,10.47
2017-09-17T01:54:28.149Z,10.44
2017-09-17T01:55:28.144Z,10.44
2017-09-17T01:56:28.140Z,10.46
2017-09-17T01:57:28.136Z,10.46
2017-09-17T01:58:28.130Z,10.44
2017-09-17T01:59:28.125Z,10.43
2017-09-17T02:00:28.121Z,10.44
2017-09-17T02:01:28.115Z,10.43
2017-09-17T02:02:28.111Z,10.44
2017-09-17T02:03:28.106Z,10.52
2017-09-17T02:04:28.104Z,10.57
2017-09-17T02:05:28.099Z,10.55
2017-09-17T02:06:28.091Z,10.55
2017-09-17T02:07:28.086Z,10.51
2017-09-17T02:08:28.082Z,10.49
2017-09-17T02:09:28.077Z,10.55
2017-09-17T02:10:28.072Z,10.44
2017-09-17T02:11:28.067Z,10.42
2017-09-17T02:12:28.062Z,10.46
2017-09-17T02:13:28.056Z,10.52
2017-09-17T02:14:28.053Z,10.52
2017-09-17T02:15:28.046Z,10.58
2017-09-17T02:16:28.043Z,10.52
2017-09-17T02:17:28.038Z,10.55
2017-09-17T02:18:28.035Z,10.43
2017-09-17T02:19:28.026Z,10.47
2017-09-17T02:20:28.022Z,10.49
2017-09-17T02:21:28.018Z,10.47
2017-09-17T02:22:28.012Z,10.47
2017-09-17T02:23:28.007Z,10.46
2017-09-17T02:24:28.003Z,10.46
2017-09-17T02:25:27.996Z,10.49
2017-09-17T02:26:27.993Z,10.47
2017-09-17T02:27:27.987Z,10.44
2017-09-17T02:28:27.983Z,10.44
2017-09-17T02:29:27.979Z,10.47
2017-09-17T02:30:27.973Z,10.49
2017-09-17T02:31:27.967Z,10.55
2017-09-17T02:32:27.963Z,10.55
2017-09-17T02:33:27.958Z,10.54
2017-09-17T02:34:27.954Z,10.52
2017-09-17T02:35:27.948Z,10.42
2017-09-17T02:36:27.944Z,10.55
2017-09-17T02:37:27.938Z,10.60
2017-09-17T02:38:27.934Z,10.49
2017-09-17T02:39:27.928Z,10.51
2017-09-17T02:40:27.922Z,10.46
2017-09-17T02:41:27.919Z,10.54
2017-09-17T02:42:27.914Z,10.49
2017-09-17T02:43:27.908Z,10.46
2017-09-17T02:44:27.903Z,10.44
2017-09-17T02:45:27.897Z,10.36
2017-09-17T02:46:27.893Z,10.43
2017-09-17T02:47:27.887Z,10.38
2017-09-17T02:48:27.883Z,10.32
2017-09-17T02:49:27.877Z,10.35
2017-09-17T02:50:27.873Z,10.34
2017-09-17T02:51:27.867Z,10.34
2017-09-17T02:52:27.862Z,10.31
2017-09-17T02:53:27.858Z,10.34
2017-09-17T02:54:27.854Z,10.34
2017-09-17T02:55:27.847Z,10.38
2017-09-17T02:56:27.843Z,10.32
2017-09-17T02:57:27.838Z,10.38
2017-09-17T02:58:27.832Z,10.38
2017-09-17T02:59:27.827Z,10.38
2017-09-17T03:00:27.823Z,10.35
2017-09-17T03:01:27.817Z,10.36
2017-09-17T03:02:27.813Z,10.43
2017-09-17T03:03:27.805Z,10.32
2017-09-17T03:04:27.802Z,10.32
2017-09-17T03:05:27.796Z,10.26
2017-09-17T03:06:27.791Z,10.34
2017-09-17T03:07:27.786Z,10.32
2017-09-17T03:08:27.782Z,10.25
2017-09-17T03:09:27.778Z,10.20
2017-09-17T03:10:27.772Z,10.34
2017-09-17T03:11:27.765Z,10.31
2017-09-17T03:12:27.764Z,10.20
2017-09-17T03:13:27.756Z,10.25
2017-09-17T03:14:27.751Z,10.20
2017-09-17T03:15:27.746Z,10.25
2017-09-17T03:16:27.740Z,10.28
2017-09-17T03:17:27.734Z,10.22
2017-09-17T03:18:27.730Z,10.17
2017-09-17T03:19:27.725Z,10.20
2017-09-17T03:20:27.719Z,10.24
2017-09-17T03:21:27.715Z,10.28
2017-09-17T03:22:27.709Z,10.29
2017-09-17T03:23:27.704Z,10.24
2017-09-17T03:24:27.699Z,10.17
2017-09-17T03:25:27.693Z,10.22
2017-09-17T03:26:27.689Z,10.22
2017-09-17T03:27:27.683Z,10.14
2017-09-17T03:28:27.678Z,10.17
2017-09-17T03:29:27.673Z,10.20
2017-09-17T03:30:27.703Z,10.14
2017-09-17T03:31:27.661Z,10.10
2017-09-17T03:32:27.663Z,10.13
2017-09-17T03:33:27.652Z,10.10
2017-09-17T03:34:27.648Z,10.10
2017-09-17T03:35:27.641Z,10.09
2017-09-17T03:36:27.636Z,10.04
2017-09-17T03:37:27.632Z,9.96
2017-09-17T03:38:27.627Z,10.07
2017-09-17T03:39:27.625Z,10.10
2017-09-17T03:40:27.616Z,10.07
2017-09-17T03:41:27.614Z,10.11
2017-09-17T03:42:27.605Z,10.10
2017-09-17T03:43:27.600Z,10.09
2017-09-17T03:44:27.595Z,10.04
2017-09-17T03:45:27.591Z,10.09
2017-09-17T03:46:27.584Z,10.04
2017-09-17T03:47:27.579Z,10.10
2017-09-17T03:48:27.575Z,10.02
2017-09-17T03:49:27.571Z,9.96
2017-09-17T03:50:27.565Z,9.95
2017-09-17T03:51:27.558Z,9.92
2017-09-17T03:52:27.555Z,9.91
2017-09-17T03:53:27.553Z,9.92
2017-09-17T03:54:27.543Z,9.92
2017-09-17T03:55:27.537Z,9.86
2017-09-17T03:56:27.532Z,9.93
2017-09-17T03:57:27.527Z,9.86
2017-09-17T03:58:27.523Z,9.91
2017-09-17T03:59:27.524Z,9.89
2017-09-17T04:00:27.511Z,9.88
2017-09-17T04:01:27.506Z,9.99
2017-09-17T04:02:27.501Z,9.91
2017-09-17T04:03:27.497Z,9.93
2017-09-17T04:04:27.494Z,10.01
2017-09-17T04:05:27.486Z,10.02
2017-09-17T04:06:27.483Z,9.99
2017-09-17T04:07:27.476Z,9.98
2017-09-17T04:08:27.471Z,10.01
2017-09-17T04:09:27.466Z,10.02
2017-09-17T04:10:27.459Z,10.06
2017-09-17T04:11:27.483Z,10.07
2017-09-17T04:12:27.450Z,10.06
2017-09-17T04:13:27.445Z,10.10
2017-09-17T04:14:27.440Z,10.17
2017-09-17T04:15:27.434Z,10.07
2017-09-17T04:16:27.430Z,10.20
2017-09-17T04:17:27.423Z,10.22
2017-09-17T04:18:27.421Z,10.17
2017-09-17T04:19:27.413Z,10.24
2017-09-17T04:20:27.409Z,10.22
2017-09-17T04:21:27.402Z,10.20
2017-09-17T04:22:27.398Z,10.18
2017-09-17T04:23:27.392Z,10.20
2017-09-17T04:24:27.387Z,10.31
2017-09-17T04:25:27.384Z,10.24
2017-09-17T04:26:27.377Z,10.18
2017-09-17T04:27:27.373Z,10.16
2017-09-17T04:28:27.368Z,10.22
2017-09-17T04:29:27.362Z,10.24
2017-09-17T04:30:27.358Z,10.22
2017-09-17T04:31:27.354Z,10.28
2017-09-17T04:32:27.348Z,10.13
2017-09-17T04:33:27.342Z,10.24
2017-09-17T04:34:27.337Z,10.13
2017-09-17T04:35:27.330Z,10.14
2017-09-17T04:36:27.327Z,10.20
2017-09-17T04:37:27.322Z,10.17
2017-09-17T04:38:27.318Z,10.18
2017-09-17T04:39:27.317Z,10.13
2017-09-17T04:40:27.307Z,10.14
2017-09-17T04:41:27.302Z,10.11
2017-09-17T04:42:27.297Z,10.09
2017-09-17T04:43:27.290Z,10.10
2017-09-17T04:44:27.288Z,10.13
2017-09-17T04:45:27.282Z,10.13
2017-09-17T04:46:27.276Z,10.14
2017-09-17T04:47:27.277Z,10.13
2017-09-17T04:48:27.266Z,10.17
2017-09-17T04:49:27.262Z,10.20
2017-09-17T04:50:27.256Z,10.16
2017-09-17T04:51:27.251Z,10.11
2017-09-17T04:52:27.245Z,10.24
2017-09-17T04:53:27.243Z,10.26
2017-09-17T04:54:27.237Z,10.18
2017-09-17T04:55:27.229Z,10.22
2017-09-17T04:56:27.228Z,10.17
2017-09-17T04:57:27.222Z,10.25
2017-09-17T04:58:27.217Z,10.24
2017-09-17T04:59:27.224Z,10.25
2017-09-17T05:00:27.207Z,10.34
2017-09-17T05:01:27.202Z,10.32
2017-09-17T05:02:27.197Z,10.32
2017-09-17T05:03:27.191Z,10.29
2017-09-17T05:04:27.186Z,10.36
2017-09-17T05:05:27.181Z,10.32
2017-09-17T05:06:27.178Z,10.39
2017-09-17T05:07:27.172Z,10.36
2017-09-17T05:08:27.166Z,10.34
2017-09-17T05:09:27.165Z,10.35
2017-09-17T05:10:27.156Z,10.31
2017-09-17T05:11:27.151Z,10.38
2017-09-17T05:12:27.148Z,10.29
2017-09-17T05:13:27.143Z,10.39
2017-09-17T05:14:27.138Z,10.34
2017-09-17T05:15:27.132Z,10.29
2017-09-17T05:16:27.129Z,10.29
2017-09-17T05:17:27.123Z,10.34
2017-09-17T05:18:27.120Z,10.36
2017-09-17T05:19:27.114Z,10.31
2017-09-17T05:20:27.110Z,10.38
2017-09-17T05:21:27.102Z,10.38
2017-09-17T05:22:27.097Z,10.43
2017-09-17T05:23:27.093Z,10.34
2017-09-17T05:24:27.088Z,10.35
2017-09-17T05:25:27.083Z,10.34
2017-09-17T05:26:27.078Z,10.42
2017-09-17T05:27:27.073Z,10.51
2017-09-17T05:28:27.068Z,10.38
2017-09-17T05:29:27.063Z,10.44
2017-09-17T05:30:27.059Z,10.46
2017-09-17T05:31:27.053Z,10.49
2017-09-17T05:32:27.048Z,10.44
2017-09-17T05:33:27.042Z,10.46
2017-09-17T05:34:27.039Z,10.44
2017-09-17T05:35:27.033Z,10.52
2017-09-17T05:36:27.028Z,10.44
2017-09-17T05:37:27.025Z,10.52
2017-09-17T05:38:27.019Z,10.51
2017-09-17T05:39:27.015Z,10.51
2017-09-17T05:40:27.009Z,10.43
2017-09-17T05:41:27.003Z,10.54
2017-09-17T05:42:26.999Z,10.52
2017-09-17T05:43:26.994Z,10.43
2017-09-17T05:44:26.990Z,10.55
2017-09-17T05:45:26.986Z,10.47
2017-09-17T05:46:26.980Z,10.55
2017-09-17T05:47:26.975Z,10.43
2017-09-17T05:48:26.969Z,10.51
2017-09-17T05:49:26.964Z,10.54
2017-09-17T05:50:26.961Z,10.43
2017-09-17T05:51:26.955Z,10.43
2017-09-17T05:52:26.951Z,10.43
2017-09-17T05:53:26.948Z,10.44
2017-09-17T05:54:26.941Z,10.46
2017-09-17T05:55:26.937Z,10.46
2017-09-17T05:56:26.931Z,10.46
2017-09-17T05:57:26.927Z,10.46
2017-09-17T05:58:26.923Z,10.43
2017-09-17T05:59:26.916Z,10.38
2017-09-17T06:00:26.912Z,10.47
2017-09-17T06:01:26.909Z,10.39
2017-09-17T06:02:26.904Z,10.36
2017-09-17T06:03:26.898Z,10.42
2017-09-17T06:04:26.892Z,10.47
2017-09-17T06:05:26.889Z,10.43
2017-09-17T06:06:26.885Z,10.46
2017-09-17T06:07:26.878Z,10.46
2017-09-17T06:08:26.873Z,10.44
2017-09-17T06:09:26.869Z,10.36
2017-09-17T06:10:26.866Z,10.46
2017-09-17T06:11:26.858Z,10.44
2017-09-17T06:12:26.855Z,10.52
2017-09-17T06:13:26.850Z,10.62
2017-09-17T06:14:26.844Z,10.66
2017-09-17T06:15:26.840Z,10.68
2017-09-17T06:16:26.835Z,10.65
2017-09-17T06:17:26.832Z,10.75
2017-09-17T06:18:26.825Z,10.66
2017-09-17T06:19:26.820Z,10.73
2017-09-17T06:20:26.816Z,10.84
2017-09-17T06:21:26.812Z,10.78
2017-09-17T06:22:26.808Z,10.84
2017-09-17T06:23:26.802Z,10.88
2017-09-17T06:24:26.799Z,10.90
2017-09-17T06:25:26.797Z,10.87
2017-09-17T06:26:26.788Z,11.08
2017-09-17T06:27:26.784Z,11.05
2017-09-17T06:28:26.778Z,11.06
2017-09-17T06:29:26.779Z,11.19
2017-09-17T06:30:26.772Z,11.12
2017-09-17T06:31:26.766Z,11.11
2017-09-17T06:32:26.761Z,11.11
2017-09-17T06:33:26.757Z,11.16
2017-09-17T06:34:26.754Z,11.16
2017-09-17T06:35:26.749Z,11.13
2017-09-17T06:36:26.743Z,11.21
2017-09-17T06:37:26.740Z,11.28
2017-09-17T06:38:26.739Z,11.28
2017-09-17T06:39:26.730Z,11.28
2017-09-17T06:40:26.727Z,11.28
2017-09-17T06:41:26.724Z,11.42
2017-09-17T06:42:26.719Z,11.46
2017-09-17T06:43:26.715Z,11.31
2017-09-17T06:44:26.712Z,11.35
2017-09-17T06:45:26.707Z,11.33
2017-09-17T06:46:26.704Z,11.31
2017-09-17T06:47:26.699Z,11.33
2017-09-17T06:48:26.696Z,11.23
2017-09-17T06:49:26.691Z,11.30
2017-09-17T06:50:26.688Z,11.49
2017-09-17T06:51:26.684Z,11.53
2017-09-17T06:52:26.686Z,11.45
2017-09-17T06:53:26.680Z,11.46
2017-09-17T06:54:26.673Z,11.30
2017-09-17T06:55:26.668Z,11.45
2017-09-17T06:56:26.664Z,11.51
2017-09-17T06:57:26.662Z,11.63
2017-09-17T06:58:26.659Z,11.57
2017-09-17T06:59:26.660Z,11.62
2017-09-17T07:00:26.653Z,11.60
2017-09-17T07:01:26.648Z,11.66
2017-09-17T07:02:26.644Z,11.72
2017-09-17T07:03:26.640Z,11.78
2017-09-17T07:04:26.637Z,11.70
2017-09-17T07:05:26.635Z,11.90
2017-09-17T07:06:26.633Z,12.03
2017-09-17T07:07:26.628Z,12.01
2017-09-17T07:08:26.625Z,12.05
2017-09-17T07:09:26.620Z,12.26
2017-09-17T07:10:26.618Z,12.31
2017-09-17T07:11:26.615Z,12.36
2017-09-17T07:12:26.612Z,12.51
2017-09-17T07:13:26.609Z,12.69
2017-09-17T07:14:26.609Z,12.85
2017-09-17T07:15:26.603Z,12.95
2017-09-17T07:16:26.601Z,13.07
2017-09-17T07:17:26.599Z,13.43
2017-09-17T07:18:26.597Z,13.80
2017-09-17T07:19:26.594Z,14.29
2017-09-17T07:20:26.591Z,14.46
2017-09-17T07:21:26.591Z,14.17
2017-09-17T07:22:26.590Z,13.91
2017-09-17T07:23:26.587Z,13.76
2017-09-17T07:24:26.586Z,13.62
2017-09-17T07:25:26.584Z,13.51
2017-09-17T07:26:26.582Z,13.41
2017-09-17T07:27:26.581Z,13.50
2017-09-17T07:28:26.581Z,13.57
2017-09-17T07:29:26.579Z,13.65
2017-09-17T07:30:26.579Z,13.80
2017-09-17T07:31:26.577Z,13.73
2017-09-17T07:32:26.576Z,13.80
2017-09-17T07:33:26.574Z,13.43
2017-09-17T07:34:26.575Z,13.24
2017-09-17T07:35:26.572Z,13.27
2017-09-17T07:36:26.572Z,13.14
2017-09-17T07:37:26.570Z,13.14
2017-09-17T07:38:26.571Z,13.13
2017-09-17T07:39:26.568Z,12.87
2017-09-17T07:40:26.566Z,12.76
2017-09-17T07:41:26.566Z,12.79
2017-09-17T07:42:26.564Z,12.67
2017-09-17T07:43:26.561Z,12.74
2017-09-17T07:44:26.559Z,12.74
2017-09-17T07:45:26.559Z,12.54
2017-09-17T07:46:26.562Z,12.51
2017-09-17T07:47:26.556Z,12.49
2017-09-17T07:48:26.553Z,12.46
2017-09-17T07:49:26.553Z,12.51
2017-09-17T07:50:26.552Z,12.48
2017-09-17T07:51:26.549Z,12.76
2017-09-17T07:52:26.555Z,12.96
2017-09-17T07:53:26.545Z,12.96
2017-09-17T07:54:26.544Z,13.09
2017-09-17T07:55:26.542Z,13.17
2017-09-17T07:56:26.542Z,13.17
2017-09-17T07:57:26.538Z,13.39
2017-09-17T07:58:26.538Z,13.29
2017-09-17T07:59:26.535Z,13.43
2017-09-17T08:00:26.534Z,13.62
2017-09-17T08:01:26.531Z,13.75
2017-09-17T08:02:26.530Z,13.57
2017-09-17T08:03:26.529Z,13.71
2017-09-17T08:04:26.528Z,13.53
2017-09-17T08:05:26.527Z,13.57
2017-09-17T08:06:26.529Z,13.53
2017-09-17T08:07:26.523Z,13.59
2017-09-17T08:08:26.521Z,13.65
2017-09-17T08:09:26.520Z,13.59
2017-09-17T08:10:26.519Z,13.68
2017-09-17T08:11:26.520Z,13.62
2017-09-17T08:12:26.520Z,13.54
2017-09-17T08:13:26.520Z,13.39
2017-09-17T08:14:26.514Z,13.31
2017-09-17T08:15:26.522Z,13.48
2017-09-17T08:16:26.510Z,13.69
2017-09-17T08:17:26.513Z,13.75
2017-09-17T08:18:26.517Z,13.68
2017-09-17T08:19:26.514Z,13.76
2017-09-17T08:20:26.508Z,13.83
2017-09-17T08:21:26.507Z,13.73
2017-09-17T08:22:26.518Z,13.96
2017-09-17T08:23:26.505Z,13.91
2017-09-17T08:24:26.513Z,14.01
2017-09-17T08:25:26.504Z,14.29
2017-09-17T08:26:26.505Z,14.21
2017-09-17T08:27:26.503Z,14.52
2017-09-17T08:28:26.536Z,14.59
2017-09-17T08:29:26.732Z,14.41
2017-09-17T08:30:26.626Z,14.12
2017-09-17T08:31:26.546Z,13.86
2017-09-17T08:32:26.613Z,13.81
2017-09-17T08:33:26.506Z,13.73
2017-09-17T08:34:26.538Z,13.88
2017-09-17T08:35:26.497Z,13.96
2017-09-17T08:36:26.497Z,14.02
2017-09-17T08:37:26.498Z,13.96
2017-09-17T08:38:26.503Z,13.99
2017-09-17T08:39:26.495Z,14.06
2017-09-17T08:40:26.495Z,13.96
2017-09-17T08:41:26.494Z,14.11
2017-09-17T08:42:26.493Z,14.02
2017-09-17T08:43:26.494Z,14.05
2017-09-17T08:44:26.493Z,13.98
2017-09-17T08:45:26.493Z,13.86
2017-09-17T08:46:26.491Z,13.86
2017-09-17T08:47:26.491Z,13.84
2017-09-17T08:48:26.492Z,13.91
2017-09-17T08:49:26.491Z,13.93
2017-09-17T08:50:26.490Z,13.65
2017-09-17T08:51:26.489Z,13.66
2017-09-17T08:52:26.488Z,13.63
2017-09-17T08:53:26.489Z,13.75
2017-09-17T08:54:26.488Z,13.81
2017-09-17T08:55:26.486Z,13.72
2017-09-17T08:56:26.487Z,13.93
2017-09-17T08:57:26.489Z,13.83
2017-09-17T08:58:26.485Z,13.94
2017-09-17T08:59:26.483Z,14.08
2017-09-17T09:00:26.499Z,13.99
2017-09-17T09:01:26.481Z,13.98
2017-09-17T09:02:26.482Z,13.98
2017-09-17T09:03:26.478Z,14.04
2017-09-17T09:04:26.478Z,14.05
2017-09-17T09:05:26.478Z,14.01
2017-09-17T09:06:26.477Z,14.11
2017-09-17T09:07:26.475Z,13.72
2017-09-17T09:08:26.474Z,13.80
2017-09-17T09:09:26.479Z,13.84
2017-09-17T09:10:26.473Z,13.75
2017-09-17T09:11:26.471Z,13.57
2017-09-17T09:12:26.469Z,13.75
2017-09-17T09:13:26.469Z,13.68
2017-09-17T09:14:26.507Z,13.79
2017-09-17T09:15:26.466Z,13.73
2017-09-17T09:16:26.503Z,13.61
2017-09-17T09:17:26.464Z,13.53
2017-09-17T09:18:26.462Z,13.66
2017-09-17T09:19:26.460Z,13.84
2017-09-17T09:20:26.459Z,13.87
2017-09-17T09:21:26.459Z,13.84
2017-09-17T09:22:26.455Z,13.91
2017-09-17T09:23:26.455Z,13.93
2017-09-17T09:24:26.452Z,13.80
2017-09-17T09:25:26.452Z,13.93
2017-09-17T09:26:26.451Z,14.01
2017-09-17T09:27:26.450Z,14.23
2017-09-17T09:28:26.447Z,14.35
2017-09-17T09:29:26.447Z,14.27
2017-09-17T09:30:26.445Z,14.29
2017-09-17T09:31:26.444Z,14.36
2017-09-17T09:32:26.443Z,14.17
2017-09-17T09:33:26.442Z,14.04
2017-09-17T09:34:26.446Z,14.20
2017-09-17T09:35:26.437Z,14.23
2017-09-17T09:36:26.437Z,14.04
2017-09-17T09:37:26.440Z,14.05
2017-09-17T09:38:26.434Z,14.02
2017-09-17T09:39:26.434Z,14.08
2017-09-17T09:40:26.434Z,14.09
2017-09-17T09:41:26.432Z,14.24
2017-09-17T09:42:26.431Z,14.35
2017-09-17T09:43:26.430Z,14.45
2017-09-17T09:44:26.429Z,14.29
2017-09-17T09:45:26.427Z,14.35
2017-09-17T09:46:26.426Z,14.30
2017-09-17T09:47:26.427Z,14.63
2017-09-17T09:48:26.424Z,14.59
2017-09-17T09:49:26.426Z,14.72
2017-09-17T09:50:26.423Z,14.91
2017-09-17T09:51:26.421Z,15.01
2017-09-17T09:52:26.421Z,15.23
2017-09-17T09:53:26.421Z,15.05
2017-09-17T09:54:26.420Z,14.78
2017-09-17T09:55:26.418Z,14.98
2017-09-17T09:56:26.418Z,14.95
2017-09-17T09:57:26.418Z,15.11
2017-09-17T09:58:26.425Z,15.00
2017-09-17T09:59:26.416Z,15.04
2017-09-17T10:00:26.416Z,15.20
2017-09-17T10:01:26.416Z,15.18
2017-09-17T10:02:26.416Z,15.33
2017-09-17T10:03:26.414Z,15.38
2017-09-17T10:04:26.414Z,15.89
2017-09-17T10:05:26.413Z,16.13
2017-09-17T10:06:26.414Z,15.96
2017-09-17T10:07:26.412Z,16.13
2017-09-17T10:08:26.414Z,16.45
2017-09-17T10:09:26.416Z,16.67
2017-09-17T10:10:26.414Z,17.07
2017-09-17T10:11:26.414Z,17.94
2017-09-17T10:12:26.416Z,18.68
2017-09-17T10:13:26.414Z,18.51
2017-09-17T10:14:26.416Z,18.76
2017-09-17T10:15:26.416Z,18.75
2017-09-17T10:16:26.419Z,18.57
2017-09-17T10:17:26.420Z,18.72
2017-09-17T10:18:26.422Z,18.69
2017-09-17T10:19:26.423Z,18.56
2017-09-17T10:20:26.427Z,18.64
2017-09-17T10:21:26.426Z,18.68
2017-09-17T10:22:26.429Z,18.76
2017-09-17T10:23:26.430Z,18.50
2017-09-17T10:24:26.432Z,18.05
2017-09-17T10:25:26.435Z,17.46
2017-09-17T10:26:26.438Z,17.24
2017-09-17T10:27:26.440Z,17.86
2017-09-17T10:28:26.444Z,18.31
2017-09-17T10:29:26.447Z,18.74
2017-09-17T10:30:26.448Z,18.72
2017-09-17T10:31:26.450Z,18.51
2017-09-17T10:32:26.452Z,18.99
2017-09-17T10:33:26.459Z,18.76
2017-09-17T10:34:26.460Z,19.02
2017-09-17T10:35:26.462Z,19.21
2017-09-17T10:36:26.465Z,18.94
2017-09-17T10:37:26.468Z,18.93
2017-09-17T10:38:26.473Z,19.13
2017-09-17T10:39:26.474Z,19.27
2017-09-17T10:40:26.478Z,19.38
2017-09-17T10:41:26.481Z,19.62
2017-09-17T10:42:26.486Z,20.50
2017-09-17T10:43:26.488Z,20.88
2017-09-17T10:44:26.500Z,20.71
2017-09-17T10:45:26.494Z,19.97
2017-09-17T10:46:26.499Z,19.76
2017-09-17T10:47:26.501Z,21.70
2017-09-17T10:48:26.506Z,23.41
2017-09-17T10:49:26.511Z,22.33
2017-09-17T10:50:26.515Z,21.42
2017-09-17T10:51:26.519Z,21.93
2017-09-17T10:52:26.525Z,22.15
2017-09-17T10:53:26.530Z,22.70
2017-09-17T10:54:26.535Z,23.45
2017-09-17T10:55:26.540Z,24.87
2017-09-17T10:56:26.548Z,25.35
2017-09-17T10:57:26.554Z,26.34
2017-09-17T10:58:26.561Z,26.56
2017-09-17T10:59:26.568Z,26.79
2017-09-17T11:00:26.575Z,26.23
2017-09-17T11:01:26.583Z,23.53
2017-09-17T11:02:26.592Z,23.68
2017-09-17T11:03:26.598Z,23.00
2017-09-17T11:04:26.608Z,23.47
2017-09-17T11:05:26.617Z,23.94
2017-09-17T11:06:26.625Z,24.87
2017-09-17T11:07:26.634Z,25.82
2017-09-17T11:08:26.643Z,25.27
2017-09-17T11:09:26.652Z,25.35
2017-09-17T11:10:26.661Z,24.86
2017-09-17T11:11:26.669Z,24.48
2017-09-17T11:12:26.680Z,24.12
2017-09-17T11:13:26.685Z,24.33
2017-09-17T11:14:26.695Z,24.14
2017-09-17T11:15:26.705Z,24.37
2017-09-17T11:16:26.712Z,24.86
2017-09-17T11:17:26.722Z,24.90
2017-09-17T11:18:26.754Z,24.09
2017-09-17T11:19:26.738Z,22.05
2017-09-17T11:20:26.749Z,22.20
2017-09-17T11:21:26.758Z,22.31
2017-09-17T11:22:26.771Z,22.81
2017-09-17T11:23:26.795Z,22.67
2017-09-17T11:24:26.782Z,21.90
2017-09-17T11:25:26.791Z,21.49
2017-09-17T11:26:26.799Z,21.05
2017-09-17T11:27:26.806Z,21.00
2017-09-17T11:28:26.813Z,21.42
2017-09-17T11:29:26.821Z,21.53
2017-09-17T11:30:26.829Z,21.68
2017-09-17T11:31:26.834Z,21.82
2017-09-17T11:32:26.839Z,21.89
2017-09-17T11:33:26.853Z,21.93
2017-09-17T11:34:26.855Z,21.89
2017-09-17T11:35:26.860Z,21.77
2017-09-17T11:36:26.867Z,21.85
2017-09-17T11:37:26.871Z,21.56
2017-09-17T11:38:26.877Z,21.45
2017-09-17T11:39:26.883Z,21.13
2017-09-17T11:40:26.887Z,20.68
2017-09-17T11:41:26.893Z,20.91
2017-09-17T11:42:26.898Z,20.83
2017-09-17T11:43:26.902Z,20.73
2017-09-17T11:44:26.908Z,20.94
2017-09-17T11:45:26.912Z,20.94
2017-09-17T11:46:26.918Z,21.08
2017-09-17T11:47:26.922Z,21.03
2017-09-17T11:48:26.927Z,21.05
2017-09-17T11:49:26.930Z,21.31
2017-09-17T11:50:26.934Z,21.38
2017-09-17T11:51:26.939Z,21.55
2017-09-17T11:52:26.946Z,21.46
2017-09-17T11:53:26.948Z,21.48
2017-09-17T11:54:26.951Z,21.59
2017-09-17T11:55:26.957Z,21.79
2017-09-17T11:56:26.959Z,21.71
2017-09-17T11:57:26.962Z,21.52
2017-09-17T11:58:26.971Z,21.68
2017-09-17T11:59:26.971Z,21.55
2017-09-17T12:00:26.975Z,21.53
2017-09-17T12:01:26.980Z,21.45
2017-09-17T12:02:26.991Z,21.13
2017-09-17T12:03:26.987Z,20.85
2017-09-17T12:04:26.992Z,21.00
2017-09-17T12:05:26.994Z,21.36
2017-09-17T12:06:26.999Z,21.52
2017-09-17T12:07:27.002Z,21.68
2017-09-17T12:08:27.006Z,21.93
2017-09-17T12:09:27.010Z,22.06
2017-09-17T12:10:27.015Z,22.12
2017-09-17T12:11:27.020Z,22.36
2017-09-17T12:12:27.025Z,22.52
2017-09-17T12:13:27.026Z,22.36
2017-09-17T12:14:27.029Z,21.99
2017-09-17T12:15:27.035Z,21.94
2017-09-17T12:16:27.036Z,22.14
2017-09-17T12:17:27.041Z,22.27
2017-09-17T12:18:27.045Z,22.27
2017-09-17T12:19:27.050Z,22.49
2017-09-17T12:20:27.052Z,22.36
2017-09-17T12:21:27.058Z,22.46
2017-09-17T12:22:27.061Z,22.38
2017-09-17T12:23:27.064Z,22.29
2017-09-17T12:24:27.069Z,21.83
2017-09-17T12:25:27.072Z,21.96
2017-09-17T12:26:27.076Z,21.86
2017-09-17T12:27:27.080Z,21.74
2017-09-17T12:28:27.085Z,21.55
2017-09-17T12:29:27.088Z,21.48
2017-09-17T12:30:27.092Z,21.58
2017-09-17T12:31:27.095Z,21.66
2017-09-17T12:32:27.100Z,21.85
2017-09-17T12:33:27.103Z,21.55
2017-09-17T12:34:27.107Z,21.71
2017-09-17T12:35:27.111Z,21.73
2017-09-17T12:36:27.114Z,21.75
2017-09-17T12:37:27.116Z,21.70
2017-09-17T12:38:27.121Z,21.66
2017-09-17T12:39:27.123Z,21.40
2017-09-17T12:40:27.153Z,21.30
2017-09-17T12:41:27.130Z,21.30
2017-09-17T12:42:27.133Z,20.98
2017-09-17T12:43:27.138Z,20.87
2017-09-17T12:44:27.139Z,20.78
2017-09-17T12:45:27.145Z,20.73
2017-09-17T12:46:27.146Z,20.64
2017-09-17T12:47:27.148Z,20.60
2017-09-17T12:48:27.152Z,20.61
2017-09-17T12:49:27.155Z,20.66
2017-09-17T12:50:27.159Z,20.38
2017-09-17T12:51:27.161Z,20.54
2017-09-17T12:52:27.163Z,20.58
2017-09-17T12:53:27.166Z,20.71